createdAt,value
2019-01-16T00:02:11.958Z,4.57
2019-01-16T00:04:41.976Z,3.53
2019-01-16T00:07:12.028Z,3.80
2019-01-16T00:09:44.814Z,3.80
2019-01-16T00:12:20.852Z,4.20
2019-01-16T00:15:07.648Z,3.97
2019-01-16T00:17:49.928Z,4.20
2019-01-16T00:20:28.862Z,4.10
2019-01-16T00:22:58.921Z,4.03
2019-01-16T00:25:28.938Z,4.07
2019-01-16T00:28:08.052Z,3.60
2019-01-16T00:30:53.104Z,4.10
2019-01-16T00:33:23.157Z,4.70
2019-01-16T00:35:53.180Z,4.00
2019-01-16T00:38:23.282Z,3.70
2019-01-16T00:41:09.844Z,3.93
2019-01-16T00:43:57.994Z,3.80
2019-01-16T00:46:46.354Z,4.30
2019-01-16T00:49:28.653Z,4.07
2019-01-16T00:52:14.983Z,4.50
2019-01-16T00:54:50.665Z,4.90
2019-01-16T00:57:23.316Z,4.50
2019-01-16T00:59:53.338Z,4.23
2019-01-16T01:02:39.482Z,4.47
2019-01-16T01:05:21.292Z,4.57
2019-01-16T01:07:51.234Z,4.40
2019-01-16T01:10:21.186Z,4.03
2019-01-16T01:13:06.167Z,4.30
2019-01-16T01:15:41.796Z,4.17
2019-01-16T01:18:20.524Z,4.77
2019-01-16T01:20:53.282Z,4.33
2019-01-16T01:23:29.075Z,4.03
2019-01-16T01:26:08.142Z,3.93
2019-01-16T01:28:43.884Z,3.70
2019-01-16T01:31:16.884Z,4.53
2019-01-16T01:33:55.734Z,3.67
2019-01-16T01:36:28.706Z,4.43
2019-01-16T01:39:15.314Z,3.47
2019-01-16T01:42:01.890Z,4.80
2019-01-16T01:44:31.913Z,3.90
2019-01-16T01:47:01.937Z,4.77
2019-01-16T01:49:34.560Z,3.80
2019-01-16T01:52:13.435Z,4.20
2019-01-16T01:54:46.171Z,3.30
2019-01-16T01:57:16.201Z,4.27
2019-01-16T01:59:52.162Z,3.87
2019-01-16T02:02:39.980Z,4.07
2019-01-16T02:05:10.014Z,3.87
2019-01-16T02:07:48.712Z,3.77
2019-01-16T02:10:27.763Z,4.17
2019-01-16T02:13:12.806Z,4.20
2019-01-16T02:15:59.265Z,3.43
2019-01-16T02:18:47.408Z,3.53
2019-01-16T02:21:33.331Z,4.10
2019-01-16T02:24:19.709Z,3.63
2019-01-16T02:27:06.264Z,3.50
2019-01-16T02:29:52.778Z,3.63
2019-01-16T02:32:22.779Z,4.43
2019-01-16T02:34:55.495Z,3.93
2019-01-16T02:37:25.490Z,3.70
2019-01-16T02:39:55.540Z,3.67
2019-01-16T02:42:25.478Z,4.10
2019-01-16T02:44:55.535Z,3.67
2019-01-16T02:47:28.666Z,3.40
2019-01-16T02:50:14.971Z,3.50
2019-01-16T02:52:44.991Z,3.43
2019-01-16T02:55:27.066Z,3.63
2019-01-16T02:58:03.116Z,4.03
2019-01-16T03:00:35.692Z,3.63
2019-01-16T03:03:23.767Z,3.40
2019-01-16T03:06:05.717Z,4.13
2019-01-16T03:08:41.327Z,3.90
2019-01-16T03:11:14.111Z,3.53
2019-01-16T03:13:44.145Z,3.57
2019-01-16T03:16:30.537Z,3.70
2019-01-16T03:19:12.535Z,3.73
2019-01-16T03:21:45.525Z,3.43
2019-01-16T03:24:15.556Z,4.00
2019-01-16T03:26:45.583Z,3.37
2019-01-16T03:29:27.885Z,3.13
2019-01-16T03:31:57.979Z,4.30
2019-01-16T03:34:27.989Z,3.87
2019-01-16T03:37:09.925Z,3.83
2019-01-16T03:39:42.868Z,3.67
2019-01-16T03:42:29.198Z,3.60
2019-01-16T03:45:05.543Z,3.83
2019-01-16T03:47:35.577Z,3.03
2019-01-16T03:50:07.335Z,3.40
2019-01-16T03:52:37.349Z,3.60
2019-01-16T03:55:07.648Z,3.63
2019-01-16T03:57:40.375Z,3.73
2019-01-16T04:00:16.651Z,3.70
2019-01-16T04:03:01.601Z,3.70
2019-01-16T04:05:47.661Z,3.70
2019-01-16T04:08:33.911Z,3.17
2019-01-16T04:11:03.926Z,3.00
2019-01-16T04:13:57.939Z,4.03
2019-01-16T04:16:30.552Z,3.53
2019-01-16T04:19:21.570Z,3.77
2019-01-16T04:21:48.519Z,3.30
2019-01-16T04:24:24.597Z,3.30
2019-01-16T04:27:00.556Z,2.93
2019-01-16T04:29:33.682Z,3.10
2019-01-16T04:32:06.350Z,3.10
2019-01-16T04:34:39.070Z,3.50
2019-01-16T04:37:15.239Z,3.30
2019-01-16T04:39:50.940Z,3.20
2019-01-16T04:42:23.945Z,3.27
2019-01-16T04:44:57.041Z,2.90
2019-01-16T04:47:27.090Z,3.57
2019-01-16T04:50:02.921Z,3.70
2019-01-16T04:52:32.927Z,3.80
2019-01-16T04:55:18.009Z,4.03
2019-01-16T04:57:56.950Z,3.47
2019-01-16T05:00:26.936Z,4.20
2019-01-16T05:03:05.740Z,3.90
2019-01-16T05:05:35.707Z,3.67
2019-01-16T05:08:17.905Z,3.53
2019-01-16T05:10:50.621Z,3.30
2019-01-16T05:13:35.769Z,3.70
2019-01-16T05:16:05.800Z,4.00
2019-01-16T05:18:41.675Z,3.53
2019-01-16T05:21:11.884Z,3.60
2019-01-16T05:23:50.854Z,3.60
2019-01-16T05:26:27.782Z,3.97
2019-01-16T05:29:00.668Z,4.40
2019-01-16T05:31:47.432Z,4.20
2019-01-16T05:34:17.452Z,3.57
2019-01-16T05:37:05.635Z,3.93
2019-01-16T05:39:35.663Z,4.27
2019-01-16T05:42:05.696Z,3.17
2019-01-16T05:44:38.267Z,3.40
2019-01-16T05:47:11.276Z,3.67
2019-01-16T05:49:47.418Z,4.10
2019-01-16T05:52:20.416Z,3.43
2019-01-16T05:54:53.415Z,4.20
2019-01-16T05:57:39.866Z,4.03
2019-01-16T06:00:13.108Z,3.60
2019-01-16T06:02:59.330Z,4.27
2019-01-16T06:05:47.435Z,4.47
2019-01-16T06:08:23.443Z,4.07
2019-01-16T06:11:05.483Z,4.03
2019-01-16T06:13:35.424Z,4.73
2019-01-16T06:16:07.983Z,4.33
2019-01-16T06:18:38.034Z,4.60
2019-01-16T06:21:08.064Z,4.83
2019-01-16T06:23:54.316Z,4.37
2019-01-16T06:26:24.241Z,3.97
2019-01-16T06:28:57.182Z,4.53
2019-01-16T06:31:42.256Z,4.27
2019-01-16T06:34:12.292Z,4.60
2019-01-16T06:36:48.266Z,4.10
2019-01-16T06:39:18.212Z,4.23
2019-01-16T06:41:57.495Z,4.60
2019-01-16T06:44:30.945Z,4.07
2019-01-16T06:47:04.262Z,4.40
2019-01-16T06:49:50.420Z,4.00
2019-01-16T06:52:36.543Z,4.10
2019-01-16T06:55:16.460Z,4.30
2019-01-16T06:57:58.858Z,4.17
2019-01-16T07:00:46.968Z,4.47
2019-01-16T07:03:17.011Z,4.33
2019-01-16T07:05:47.074Z,5.20
2019-01-16T07:08:19.797Z,4.67
2019-01-16T07:11:01.849Z,5.33
2019-01-16T07:13:31.862Z,4.60
2019-01-16T07:16:04.851Z,3.90
2019-01-16T07:18:34.828Z,4.90
2019-01-16T07:21:04.840Z,4.57
2019-01-16T07:23:46.910Z,4.17
2019-01-16T07:26:33.122Z,5.37
2019-01-16T07:29:05.798Z,3.97
2019-01-16T07:31:47.774Z,4.60
2019-01-16T07:34:23.499Z,4.97
2019-01-16T07:36:53.544Z,5.63
2019-01-16T07:39:23.548Z,4.50
2019-01-16T07:41:53.512Z,4.97
2019-01-16T07:44:32.553Z,4.40
2019-01-16T07:47:02.580Z,4.70
2019-01-16T07:49:48.923Z,3.60
2019-01-16T07:52:21.685Z,4.80
2019-01-16T07:54:57.375Z,3.87
2019-01-16T07:57:27.408Z,5.43
2019-01-16T08:00:09.287Z,5.37
2019-01-16T08:02:51.252Z,4.67
2019-01-16T08:05:39.240Z,4.63
2019-01-16T08:08:27.563Z,5.00
2019-01-16T08:11:15.770Z,5.07
2019-01-16T08:14:02.055Z,4.63
2019-01-16T08:16:35.043Z,4.40
2019-01-16T08:19:05.099Z,4.43
2019-01-16T08:21:38.047Z,4.50
2019-01-16T08:24:10.955Z,4.67
2019-01-16T08:26:40.974Z,4.80
2019-01-16T08:29:19.775Z,5.13
2019-01-16T08:31:49.744Z,5.30
2019-01-16T08:34:36.405Z,4.57
2019-01-16T08:37:06.423Z,4.67
2019-01-16T08:39:36.464Z,4.57
2019-01-16T08:42:22.709Z,5.00
2019-01-16T08:44:58.747Z,5.10
2019-01-16T08:47:37.417Z,4.80
2019-01-16T08:50:13.520Z,4.57
2019-01-16T08:52:43.448Z,5.00
2019-01-16T08:55:19.621Z,4.70
2019-01-16T08:57:58.451Z,5.07
2019-01-16T09:00:37.322Z,4.17
2019-01-16T09:03:23.596Z,4.37
2019-01-16T09:06:02.415Z,5.20
2019-01-16T09:08:35.373Z,4.40
2019-01-16T09:11:14.125Z,5.30
2019-01-16T09:13:46.784Z,4.27
2019-01-16T09:16:25.765Z,4.30
2019-01-16T09:19:04.545Z,3.53
2019-01-16T09:21:37.285Z,5.30
2019-01-16T09:24:09.985Z,4.83
2019-01-16T09:27:15.957Z,4.63
2019-01-16T09:29:54.938Z,4.40
2019-01-16T09:32:27.719Z,4.60
2019-01-16T09:35:14.420Z,4.70
2019-01-16T09:37:50.426Z,4.40
2019-01-16T09:40:36.745Z,4.43
2019-01-16T09:43:06.773Z,4.70
2019-01-16T09:45:55.027Z,4.20
2019-01-16T09:48:28.045Z,6.03
2019-01-16T09:51:13.144Z,5.43
2019-01-16T09:53:58.382Z,4.47
2019-01-16T09:56:34.147Z,5.40
2019-01-16T09:59:06.896Z,5.50
2019-01-16T10:01:51.935Z,5.07
2019-01-16T10:04:22.064Z,4.60
2019-01-16T10:06:52.056Z,4.23
2019-01-16T10:09:24.872Z,4.30
2019-01-16T10:12:11.333Z,4.17
2019-01-16T10:14:41.380Z,4.03
2019-01-16T10:17:17.046Z,5.00
2019-01-16T10:19:47.075Z,4.20
2019-01-16T10:22:22.711Z,4.60
2019-01-16T10:25:11.044Z,4.03
2019-01-16T10:27:56.101Z,4.10
2019-01-16T10:30:44.553Z,3.90
2019-01-16T10:33:30.681Z,4.50
2019-01-16T10:36:03.743Z,4.00
2019-01-16T10:38:50.177Z,3.47
2019-01-16T10:41:20.208Z,3.90
2019-01-16T10:43:52.931Z,4.20
2019-01-16T10:46:25.529Z,4.57
2019-01-16T10:48:58.648Z,3.40
2019-01-16T10:51:28.666Z,4.17
2019-01-16T10:54:01.390Z,4.50
2019-01-16T10:56:31.431Z,4.07
2019-01-16T10:59:10.724Z,4.27
2019-01-16T11:01:59.047Z,3.43
2019-01-16T11:04:34.702Z,3.87
2019-01-16T11:07:04.779Z,3.87
2019-01-16T11:09:34.859Z,3.97
2019-01-16T11:12:21.524Z,4.03
2019-01-16T11:15:03.504Z,3.57
2019-01-16T11:17:39.553Z,3.67
2019-01-16T11:20:15.843Z,3.97
2019-01-16T11:23:02.066Z,4.13
2019-01-16T11:25:37.779Z,3.83
2019-01-16T11:28:26.070Z,3.70
2019-01-16T11:30:58.894Z,4.53
2019-01-16T11:33:47.319Z,4.00
2019-01-16T11:36:26.323Z,4.10
2019-01-16T11:38:56.353Z,3.70
2019-01-16T11:41:29.002Z,3.90
2019-01-16T11:44:11.281Z,4.17
2019-01-16T11:46:53.421Z,3.70
2019-01-16T11:49:26.175Z,5.30
2019-01-16T11:52:11.602Z,4.43
2019-01-16T11:54:47.271Z,4.57
2019-01-16T11:57:33.517Z,3.63
2019-01-16T12:00:03.549Z,4.43
2019-01-16T12:02:38.680Z,4.63
2019-01-16T12:05:10.548Z,4.77
2019-01-16T12:07:40.550Z,4.80
2019-01-16T12:10:29.238Z,4.90
2019-01-16T12:13:07.810Z,4.67
2019-01-16T12:15:53.811Z,3.90
2019-01-16T12:18:29.745Z,4.70
2019-01-16T12:21:11.837Z,4.43
2019-01-16T12:23:41.831Z,5.30
2019-01-16T12:26:28.052Z,5.37
2019-01-16T12:29:07.130Z,5.53
2019-01-16T12:31:37.256Z,4.80
2019-01-16T12:34:10.138Z,4.33
2019-01-16T12:36:43.120Z,4.90
2019-01-16T12:39:13.265Z,4.97
2019-01-16T12:41:46.384Z,4.40
2019-01-16T12:44:16.366Z,4.30
2019-01-16T12:47:02.953Z,5.20
2019-01-16T12:49:35.954Z,4.80
2019-01-16T12:52:12.365Z,4.53
2019-01-16T12:54:42.404Z,4.30
2019-01-16T12:57:15.393Z,4.80
2019-01-16T12:59:51.224Z,4.27
2019-01-16T13:02:37.696Z,4.53
2019-01-16T13:05:07.711Z,4.30
2019-01-16T13:07:40.574Z,4.23
2019-01-16T13:10:23.738Z,4.57
2019-01-16T13:12:59.813Z,4.43
2019-01-16T13:15:29.773Z,4.30
2019-01-16T13:18:18.140Z,4.77
2019-01-16T13:20:48.094Z,4.33
2019-01-16T13:23:18.105Z,3.53
2019-01-16T13:26:00.454Z,3.57
2019-01-16T13:28:45.695Z,4.00
2019-01-16T13:31:18.575Z,3.97
2019-01-16T13:34:04.741Z,4.20
2019-01-16T13:36:34.857Z,4.10
2019-01-16T13:39:20.832Z,3.87
2019-01-16T13:41:56.823Z,4.23
2019-01-16T13:44:26.825Z,4.20
2019-01-16T13:46:56.852Z,4.83
2019-01-16T13:49:32.474Z,3.53
2019-01-16T13:52:08.466Z,4.17
2019-01-16T13:54:53.421Z,3.63
2019-01-16T13:57:29.065Z,4.20
2019-01-16T14:00:11.064Z,3.20
2019-01-16T14:02:41.097Z,4.00
2019-01-16T14:05:26.241Z,4.10
2019-01-16T14:07:58.885Z,4.50
2019-01-16T14:10:28.895Z,3.87
2019-01-16T14:13:04.603Z,3.97
2019-01-16T14:15:40.324Z,4.20
2019-01-16T14:18:25.639Z,3.60
2019-01-16T14:20:58.645Z,3.23
2019-01-16T14:23:28.646Z,3.47
2019-01-16T14:26:04.308Z,4.30
2019-01-16T14:28:37.395Z,4.67
2019-01-16T14:31:07.327Z,3.83
2019-01-16T14:33:46.563Z,4.27
2019-01-16T14:36:33.128Z,4.10
2019-01-16T14:39:15.553Z,4.20
2019-01-16T14:42:01.829Z,3.63
2019-01-16T14:44:34.756Z,3.80
2019-01-16T14:47:07.302Z,4.10
2019-01-16T14:49:39.974Z,3.77
2019-01-16T14:52:18.885Z,3.50
2019-01-16T14:55:06.446Z,4.40
2019-01-16T14:57:36.633Z,4.50
2019-01-16T15:00:09.895Z,3.53
2019-01-16T15:02:42.514Z,3.77
2019-01-16T15:05:24.881Z,3.93
2019-01-16T15:08:07.156Z,4.30
2019-01-16T15:10:37.179Z,4.53
2019-01-16T15:13:13.161Z,4.20
2019-01-16T15:15:43.120Z,3.80
2019-01-16T15:18:22.201Z,3.93
2019-01-16T15:20:52.234Z,4.10
2019-01-16T15:23:28.268Z,4.10
2019-01-16T15:26:00.965Z,2.97
2019-01-16T15:28:47.501Z,3.53
2019-01-16T15:31:29.789Z,4.70
2019-01-16T15:33:59.793Z,4.50
2019-01-16T15:36:35.755Z,4.00
2019-01-16T15:39:24.759Z,3.70
2019-01-16T15:42:00.751Z,3.80
2019-01-16T15:44:36.585Z,3.47
2019-01-16T15:47:15.543Z,3.43
2019-01-16T15:50:01.616Z,3.70
2019-01-16T15:52:37.913Z,5.00
2019-01-16T15:55:13.852Z,3.93
2019-01-16T15:57:50.091Z,4.23
2019-01-16T16:00:20.040Z,4.17
2019-01-16T16:03:08.287Z,4.70
2019-01-16T16:05:41.226Z,5.77
2019-01-16T16:08:17.376Z,5.80
2019-01-16T16:10:50.276Z,4.87
2019-01-16T16:13:23.049Z,5.80
2019-01-16T16:15:53.040Z,5.53
2019-01-16T16:18:39.358Z,5.53
2019-01-16T16:21:18.552Z,5.63
2019-01-16T16:24:04.961Z,5.30
2019-01-16T16:26:37.939Z,6.27
2019-01-16T16:29:24.559Z,6.93
2019-01-16T16:31:54.591Z,7.47
2019-01-16T16:34:24.648Z,5.97
2019-01-16T16:36:57.567Z,5.70
2019-01-16T16:39:42.781Z,5.23
2019-01-16T16:42:12.782Z,5.20
2019-01-16T16:44:55.010Z,5.40
2019-01-16T16:47:34.284Z,5.17
2019-01-16T16:50:10.412Z,5.67
2019-01-16T16:52:56.906Z,5.47
2019-01-16T16:55:42.354Z,5.13
2019-01-16T16:58:15.082Z,5.37
2019-01-16T17:00:47.903Z,5.43
2019-01-16T17:03:34.069Z,6.67
2019-01-16T17:06:12.625Z,6.83
2019-01-16T17:08:48.410Z,6.27
2019-01-16T17:11:18.431Z,5.57
2019-01-16T17:14:00.799Z,6.33
2019-01-16T17:16:30.832Z,6.50
2019-01-16T17:19:00.848Z,6.77
2019-01-16T17:21:47.410Z,7.53
2019-01-16T17:24:17.423Z,7.10
2019-01-16T17:26:50.126Z,7.07
2019-01-16T17:29:29.422Z,5.87
2019-01-16T17:32:14.676Z,6.30
2019-01-16T17:35:03.001Z,5.33
2019-01-16T17:37:32.937Z,5.63
2019-01-16T17:40:05.687Z,5.47
2019-01-16T17:42:53.852Z,5.47
2019-01-16T17:45:23.881Z,5.67
2019-01-16T17:47:53.904Z,5.43
2019-01-16T17:50:26.504Z,5.93
2019-01-16T17:53:02.241Z,5.80
2019-01-16T17:55:38.028Z,5.80
2019-01-16T17:58:10.795Z,5.83
2019-01-16T18:00:40.806Z,5.67
2019-01-16T18:03:13.250Z,6.77
2019-01-16T18:05:43.286Z,5.90
2019-01-16T18:08:28.502Z,5.93
2019-01-16T18:11:01.307Z,6.20
2019-01-16T18:13:40.381Z,7.03
2019-01-16T18:16:26.652Z,7.23
2019-01-16T18:19:11.882Z,6.60
2019-01-16T18:21:51.083Z,6.00
2019-01-16T18:24:36.239Z,6.13
2019-01-16T18:27:08.934Z,6.53
2019-01-16T18:29:38.925Z,5.40
2019-01-16T18:32:11.929Z,5.87
2019-01-16T18:34:57.015Z,5.97
2019-01-16T18:37:38.901Z,6.13
2019-01-16T18:40:17.892Z,6.23
2019-01-16T18:42:47.925Z,5.90
2019-01-16T18:45:36.293Z,6.20
2019-01-16T18:48:12.395Z,5.93
2019-01-16T18:50:51.208Z,6.67
2019-01-16T18:53:21.137Z,6.17
2019-01-16T18:55:53.726Z,6.37
2019-01-16T18:58:26.380Z,6.07
2019-01-16T19:01:08.277Z,7.37
2019-01-16T19:03:44.405Z,6.73
2019-01-16T19:06:14.422Z,7.13
2019-01-16T19:09:00.929Z,6.97
2019-01-16T19:11:33.941Z,6.33
2019-01-16T19:14:06.751Z,6.40
2019-01-16T19:16:53.200Z,6.43
2019-01-16T19:19:41.585Z,5.97
2019-01-16T19:22:14.695Z,7.30
2019-01-16T19:24:47.436Z,6.10
2019-01-16T19:27:20.364Z,6.37
2019-01-16T19:30:05.433Z,6.40
2019-01-16T19:32:35.433Z,6.97
2019-01-16T19:35:09.009Z,6.60
2019-01-16T19:37:55.595Z,6.83
2019-01-16T19:40:25.691Z,6.63
2019-01-16T19:42:55.689Z,7.00
2019-01-16T19:45:42.137Z,7.17
2019-01-16T19:48:18.329Z,7.37
2019-01-16T19:51:03.775Z,7.07
2019-01-16T19:53:33.814Z,7.63
2019-01-16T19:56:03.823Z,6.30
2019-01-16T19:58:33.867Z,7.77
2019-01-16T20:01:03.965Z,6.63
2019-01-16T20:03:52.014Z,7.23
2019-01-16T20:06:34.126Z,7.20
2019-01-16T20:09:20.530Z,6.63
2019-01-16T20:11:59.498Z,6.50
2019-01-16T20:14:32.071Z,7.30
2019-01-16T20:17:13.515Z,6.57
2019-01-16T20:19:43.547Z,6.70
2019-01-16T20:22:31.843Z,7.03
2019-01-16T20:25:01.862Z,6.80
2019-01-16T20:27:48.281Z,7.77
2019-01-16T20:30:34.844Z,7.60
2019-01-16T20:33:21.246Z,6.50
2019-01-16T20:36:03.319Z,6.07
2019-01-16T20:38:36.205Z,7.20
2019-01-16T20:41:08.857Z,6.37
2019-01-16T20:43:41.855Z,7.27
2019-01-16T20:46:28.218Z,6.20
2019-01-16T20:48:58.248Z,7.57
2019-01-16T20:51:31.374Z,7.57
2019-01-16T20:54:10.618Z,6.73
2019-01-16T20:56:40.634Z,5.97
2019-01-16T20:59:19.642Z,6.43
2019-01-16T21:02:06.036Z,6.13
2019-01-16T21:04:48.234Z,6.07
2019-01-16T21:07:18.278Z,6.13
2019-01-16T21:09:57.334Z,6.87
2019-01-16T21:12:36.400Z,7.00
2019-01-16T21:15:15.555Z,6.60
2019-01-16T21:18:00.656Z,6.93
2019-01-16T21:20:30.622Z,6.80
2019-01-16T21:23:03.843Z,6.80
2019-01-16T21:25:33.800Z,7.13
2019-01-16T21:28:03.815Z,8.40
2019-01-16T21:30:33.830Z,7.83
2019-01-16T21:33:03.953Z,7.23
2019-01-16T21:35:48.944Z,7.70
2019-01-16T21:38:24.606Z,8.03
2019-01-16T21:41:11.135Z,7.20
2019-01-16T21:43:44.092Z,7.07
2019-01-16T21:46:28.999Z,7.37
2019-01-16T21:48:58.955Z,6.30
2019-01-16T21:51:34.997Z,6.57
2019-01-16T21:54:13.980Z,6.57
2019-01-16T21:56:50.141Z,7.23
2019-01-16T21:59:26.113Z,6.77
2019-01-16T22:02:14.515Z,7.00
2019-01-16T22:04:47.486Z,7.50
2019-01-16T22:07:17.464Z,7.10
2019-01-16T22:09:59.679Z,6.87
2019-01-16T22:12:29.657Z,7.20
2019-01-16T22:15:18.208Z,6.57
2019-01-16T22:18:04.563Z,6.80
2019-01-16T22:20:49.487Z,6.43
2019-01-16T22:23:19.493Z,6.70
2019-01-16T22:26:05.950Z,6.33
2019-01-16T22:28:47.964Z,6.77
2019-01-16T22:31:34.246Z,5.73
2019-01-16T22:34:10.020Z,6.60
2019-01-16T22:36:46.283Z,6.93
2019-01-16T22:39:16.353Z,6.47
2019-01-16T22:41:49.318Z,7.40
2019-01-16T22:44:31.518Z,6.90
2019-01-16T22:47:15.110Z,5.63
2019-01-16T22:50:03.251Z,6.30
2019-01-16T22:52:36.158Z,6.03
2019-01-16T22:55:24.156Z,5.87
2019-01-16T22:57:54.204Z,5.97
2019-01-16T23:00:42.687Z,5.77
2019-01-16T23:03:15.650Z,6.10
2019-01-16T23:06:00.672Z,6.57
2019-01-16T23:08:30.832Z,5.40
2019-01-16T23:11:13.042Z,5.20
2019-01-16T23:13:55.144Z,5.63
2019-01-16T23:16:27.812Z,5.30
2019-01-16T23:19:15.095Z,5.80
2019-01-16T23:22:00.216Z,6.10
2019-01-16T23:24:46.154Z,6.67
2019-01-16T23:27:31.566Z,6.20
2019-01-16T23:30:07.657Z,5.37
2019-01-16T23:32:53.871Z,5.37
2019-01-16T23:35:26.786Z,5.10
2019-01-16T23:38:05.572Z,5.67
2019-01-16T23:40:38.045Z,5.83
2019-01-16T23:43:08.085Z,5.60
2019-01-16T23:45:54.275Z,5.43
2019-01-16T23:48:30.125Z,5.50
2019-01-16T23:51:16.617Z,5.13
2019-01-16T23:53:56.062Z,5.30
2019-01-16T23:56:37.419Z,5.00
2019-01-16T23:59:07.353Z,4.67
